Time;durP1;ratioP1;P1;durP2;ratioP2;P2;SDS_P1;SDS_P2;PMS_P1;PMS_P2;Temp;Humidity;BMP_temperature;BMP_pressure;BME280_temperature;BME280_humidity;BME280_pressure;Samples;Min_cycle;Max_cycle;Signal;HPM_P1;HPM_P2
2022/03/02 00:01:57;;;;;;;47.15;29.98;;;;;;;;;;4835676;29;20049;-84
2022/03/02 00:04:23;;;;;;;51.00;32.38;;;;;;;;;;4852320;29;20414;-84
2022/03/02 00:06:49;;;;;;;50.70;33.00;;;;;;;;;;4834599;29;20557;-84
2022/03/02 00:09:15;;;;;;;51.15;32.13;;;;;;;;;;4852281;29;20562;-84
2022/03/02 00:11:41;;;;;;;50.83;31.27;;;;;;;;;;4832747;29;20136;-84
2022/03/02 00:14:07;;;;;;;50.72;32.78;;;;;;;;;;4835314;29;20062;-84
2022/03/02 00:16:34;;;;;;;50.92;32.78;;;;;;;;;;4833793;29;20060;-84
2022/03/02 00:19:01;;;;;;;51.65;32.60;;;;;;;;;;4853006;29;20055;-84
2022/03/02 00:21:28;;;;;;;50.90;32.70;;;;;;;;;;4851926;29;20045;-84
2022/03/02 00:23:54;;;;;;;54.88;33.08;;;;;;;;;;4820117;29;20128;-84
2022/03/02 00:26:20;;;;;;;54.80;32.70;;;;;;;;;;4805203;29;20041;-85
2022/03/02 00:28:47;;;;;;;55.08;34.20;;;;;;;;;;4828686;29;20510;-84
2022/03/02 00:31:13;;;;;;;56.90;33.97;;;;;;;;;;4853091;29;20056;-84
2022/03/02 00:33:39;;;;;;;54.95;33.53;;;;;;;;;;4833127;29;20482;-84
2022/03/02 00:36:05;;;;;;;55.53;35.13;;;;;;;;;;4834362;29;20053;-86
2022/03/02 00:38:31;;;;;;;56.72;35.00;;;;;;;;;;4852839;29;20492;-84
2022/03/02 00:40:57;;;;;;;58.97;35.22;;;;;;;;;;4855603;29;20085;-84
2022/03/02 00:43:23;;;;;;;55.88;34.70;;;;;;;;;;4854928;29;20452;-83
2022/03/02 00:45:52;;;;;;;54.13;33.85;;;;;;;;;;4854754;29;20045;-84
2022/03/02 00:48:19;;;;;;;53.33;33.90;;;;;;;;;;4840277;29;20410;-84
2022/03/02 00:50:45;;;;;;;53.70;34.55;;;;;;;;;;4850616;29;20045;-84
2022/03/02 00:53:11;;;;;;;57.72;35.90;;;;;;;;;;4856313;29;20081;-84
2022/03/02 00:55:37;;;;;;;53.00;35.05;;;;;;;;;;4836601;29;20097;-84
2022/03/02 00:58:09;;;;;;;55.20;34.70;;;;;;;;;;4854096;29;20052;-85
2022/03/02 01:00:36;;;;;;;54.05;35.10;;;;;;;;;;4853964;29;20463;-85
2022/03/02 01:03:03;;;;;;;54.22;34.92;;;;;;;;;;4868556;29;20049;-84
2022/03/02 01:05:34;;;;;;;61.00;34.28;;;;;;;;;;4859005;29;20062;-83
2022/03/02 01:08:01;;;;;;;52.63;34.33;;;;;;;;;;4876122;29;20038;-84
2022/03/02 01:10:27;;;;;;;58.58;35.90;;;;;;;;;;4862161;29;20057;-83
2022/03/02 01:12:53;;;;;;;56.55;36.42;;;;;;;;;;4853750;29;20045;-84
2022/03/02 01:15:19;;;;;;;53.38;34.75;;;;;;;;;;4838566;29;20050;-84
2022/03/02 01:17:46;;;;;;;58.78;35.15;;;;;;;;;;4852921;29;20049;-83
2022/03/02 01:20:12;;;;;;;54.80;34.67;;;;;;;;;;4855553;29;20097;-84
2022/03/02 01:22:38;;;;;;;59.85;35.22;;;;;;;;;;4853900;29;20158;-84
2022/03/02 01:25:06;;;;;;;63.60;37.42;;;;;;;;;;4805697;29;20178;-84
2022/03/02 01:27:32;;;;;;;61.10;37.22;;;;;;;;;;4836878;29;20044;-83
2022/03/02 01:29:58;;;;;;;59.95;37.22;;;;;;;;;;4853934;29;20179;-84
2022/03/02 01:32:24;;;;;;;66.45;37.78;;;;;;;;;;4854546;29;20140;-84
2022/03/02 01:34:50;;;;;;;65.25;38.50;;;;;;;;;;4852871;29;20105;-84
2022/03/02 01:37:17;;;;;;;61.17;37.67;;;;;;;;;;4855314;29;20045;-83
2022/03/02 01:39:43;;;;;;;61.08;37.05;;;;;;;;;;4838242;29;20121;-84
2022/03/02 01:42:09;;;;;;;66.30;38.08;;;;;;;;;;4853563;29;20117;-84
2022/03/02 01:44:37;;;;;;;63.55;37.70;;;;;;;;;;4826562;29;20145;-83
2022/03/02 01:47:04;;;;;;;62.95;39.05;;;;;;;;;;4836593;29;20045;-84
2022/03/02 01:49:30;;;;;;;64.50;37.95;;;;;;;;;;4854518;29;20498;-84
2022/03/02 01:51:56;;;;;;;70.70;39.00;;;;;;;;;;4826951;29;20457;-84
2022/03/02 01:54:22;;;;;;;65.07;39.47;;;;;;;;;;4848712;29;20136;-83
2022/03/02 01:56:49;;;;;;;66.15;38.75;;;;;;;;;;4852158;29;20053;-83
2022/03/02 01:59:15;;;;;;;60.47;37.80;;;;;;;;;;4853682;29;20541;-84
2022/03/02 02:01:41;;;;;;;61.22;38.28;;;;;;;;;;4858721;29;20038;-84
2022/03/02 02:04:07;;;;;;;64.90;37.63;;;;;;;;;;4857418;29;20060;-84
2022/03/02 02:06:34;;;;;;;69.20;38.42;;;;;;;;;;4856155;29;20052;-83
2022/03/02 02:09:00;;;;;;;64.15;37.25;;;;;;;;;;4858303;29;20037;-83
2022/03/02 02:11:27;;;;;;;64.25;38.00;;;;;;;;;;4856967;29;20060;-85
2022/03/02 02:13:53;;;;;;;62.33;36.67;;;;;;;;;;4863060;29;20056;-84
2022/03/02 02:16:23;;;;;;;65.72;37.88;;;;;;;;;;4857859;29;20181;-85
2022/03/02 02:18:54;;;;;;;68.35;40.13;;;;;;;;;;4838309;29;20433;-84
2022/03/02 02:21:21;;;;;;;67.72;39.92;;;;;;;;;;4837071;29;20085;-84
2022/03/02 02:23:48;;;;;;;68.78;40.88;;;;;;;;;;4853242;29;20128;-84
2022/03/02 02:26:14;;;;;;;72.38;40.55;;;;;;;;;;4827865;29;20044;-84
2022/03/02 02:28:41;;;;;;;73.18;40.85;;;;;;;;;;4854038;29;20538;-84
2022/03/02 02:31:07;;;;;;;73.15;40.63;;;;;;;;;;4853014;29;20029;-84
2022/03/02 02:33:33;;;;;;;69.10;40.55;;;;;;;;;;4852548;29;20098;-84
2022/03/02 02:35:59;;;;;;;72.20;41.60;;;;;;;;;;4849674;29;20053;-85
2022/03/02 02:38:25;;;;;;;72.28;41.45;;;;;;;;;;4821113;29;20038;-84
2022/03/02 02:40:52;;;;;;;69.07;40.47;;;;;;;;;;4851924;29;20053;-84
2022/03/02 02:43:20;;;;;;;69.55;39.75;;;;;;;;;;4850904;29;20406;-84
2022/03/02 02:45:46;;;;;;;70.20;40.70;;;;;;;;;;4852679;29;20049;-82
2022/03/02 02:48:12;;;;;;;67.55;39.80;;;;;;;;;;4852710;29;20498;-84
2022/03/02 02:50:38;;;;;;;66.57;40.15;;;;;;;;;;4852517;29;20533;-85
2022/03/02 02:53:06;;;;;;;67.95;40.28;;;;;;;;;;4855041;29;20109;-84
2022/03/02 02:55:33;;;;;;;62.80;38.85;;;;;;;;;;4853556;29;20421;-84
2022/03/02 02:58:00;;;;;;;64.95;38.00;;;;;;;;;;4852030;29;20049;-84
2022/03/02 03:00:27;;;;;;;66.00;38.42;;;;;;;;;;4851950;29;20514;-84
2022/03/02 03:02:54;;;;;;;68.85;39.65;;;;;;;;;;4852720;29;20064;-83
2022/03/02 03:05:21;;;;;;;67.45;38.88;;;;;;;;;;4851617;29;20050;-84
2022/03/02 03:07:48;;;;;;;67.15;38.88;;;;;;;;;;4850838;29;20053;-84
2022/03/02 03:10:15;;;;;;;70.85;40.28;;;;;;;;;;4847338;29;20053;-84
2022/03/02 03:12:42;;;;;;;71.22;38.88;;;;;;;;;;4853796;29;20045;-84
2022/03/02 03:15:09;;;;;;;67.63;38.83;;;;;;;;;;4852087;29;20137;-83
2022/03/02 03:17:35;;;;;;;65.97;39.83;;;;;;;;;;4853561;29;20117;-84
2022/03/02 03:20:02;;;;;;;66.60;39.72;;;;;;;;;;4835269;29;20571;-84
2022/03/02 03:22:28;;;;;;;72.63;39.75;;;;;;;;;;4852495;29;20058;-84
2022/03/02 03:24:54;;;;;;;65.13;37.95;;;;;;;;;;4851950;29;20080;-84
2022/03/02 03:27:20;;;;;;;67.82;39.75;;;;;;;;;;4850374;29;20049;-84
2022/03/02 03:29:46;;;;;;;65.30;38.97;;;;;;;;;;4851229;29;20042;-84
2022/03/02 03:32:12;;;;;;;65.82;39.55;;;;;;;;;;4850228;29;20049;-83
2022/03/02 03:34:38;;;;;;;71.55;37.90;;;;;;;;;;4853110;29;20465;-84
2022/03/02 03:37:04;;;;;;;70.07;39.67;;;;;;;;;;4851529;29;20053;-84
2022/03/02 03:39:30;;;;;;;62.95;38.08;;;;;;;;;;4852336;29;20143;-83
2022/03/02 03:41:56;;;;;;;67.65;39.30;;;;;;;;;;4851966;29;20049;-83
2022/03/02 03:44:23;;;;;;;65.47;39.55;;;;;;;;;;4853007;29;20144;-83
2022/03/02 03:46:49;;;;;;;69.57;38.90;;;;;;;;;;4853037;29;20056;-83
2022/03/02 03:49:15;;;;;;;65.63;38.30;;;;;;;;;;4851528;29;20057;-84
2022/03/02 03:51:42;;;;;;;66.43;38.53;;;;;;;;;;4851936;29;20387;-84
2022/03/02 03:54:08;;;;;;;70.43;39.72;;;;;;;;;;4804215;29;20038;-84
2022/03/02 03:56:35;;;;;;;64.07;39.97;;;;;;;;;;4837310;29;20116;-83
2022/03/02 03:59:01;;;;;;;64.40;40.33;;;;;;;;;;4850827;29;20050;-84
2022/03/02 04:01:28;;;;;;;66.65;39.40;;;;;;;;;;4852989;29;20506;-84
2022/03/02 04:03:54;;;;;;;62.00;38.33;;;;;;;;;;4852437;29;20091;-87
2022/03/02 04:06:20;;;;;;;68.57;38.92;;;;;;;;;;4852494;29;20084;-84
2022/03/02 04:08:46;;;;;;;66.68;39.22;;;;;;;;;;4851887;29;20050;-83
2022/03/02 04:11:13;;;;;;;68.10;39.80;;;;;;;;;;4852197;29;20097;-84
2022/03/02 04:13:39;;;;;;;75.88;42.33;;;;;;;;;;4857500;29;20076;-83
2022/03/02 04:16:05;;;;;;;66.57;39.55;;;;;;;;;;4851924;29;20053;-83
2022/03/02 04:18:31;;;;;;;68.15;40.25;;;;;;;;;;4857181;29;20034;-84
2022/03/02 04:20:58;;;;;;;61.78;36.75;;;;;;;;;;4854844;29;20113;-84
2022/03/02 04:23:25;;;;;;;63.13;38.00;;;;;;;;;;4855627;29;20048;-84
2022/03/02 04:25:51;;;;;;;65.85;38.22;;;;;;;;;;4855859;29;20029;-84
2022/03/02 04:28:17;;;;;;;61.00;37.42;;;;;;;;;;4855461;29;20041;-84
2022/03/02 04:30:43;;;;;;;67.63;37.45;;;;;;;;;;4855575;29;20042;-84
2022/03/02 04:33:09;;;;;;;66.72;39.42;;;;;;;;;;4855013;29;20450;-83
2022/03/02 04:35:36;;;;;;;74.60;37.92;;;;;;;;;;4856306;29;20073;-84
2022/03/02 04:38:03;;;;;;;66.57;38.38;;;;;;;;;;4854482;29;20495;-84
2022/03/02 04:40:29;;;;;;;62.72;36.97;;;;;;;;;;4821398;29;20539;-84
2022/03/02 04:42:55;;;;;;;60.65;37.80;;;;;;;;;;4853368;29;20506;-84
2022/03/02 04:45:30;;;;;;;59.72;36.70;;;;;;;;;;4855247;29;20522;-84
2022/03/02 04:48:00;;;;;;;62.10;37.15;;;;;;;;;;4854399;29;20042;-84
2022/03/02 04:50:27;;;;;;;60.13;36.30;;;;;;;;;;4854251;29;20041;-83
2022/03/02 04:52:54;;;;;;;62.05;35.92;;;;;;;;;;4838197;29;20061;-84
2022/03/02 04:55:20;;;;;;;59.50;36.50;;;;;;;;;;4854439;29;20056;-84
2022/03/02 04:57:47;;;;;;;62.22;36.58;;;;;;;;;;4840109;29;20042;-84
2022/03/02 05:00:18;;;;;;;62.55;36.85;;;;;;;;;;4854978;29;20145;-84
2022/03/02 05:02:45;;;;;;;64.88;37.45;;;;;;;;;;4854879;29;20072;-84
2022/03/02 05:05:12;;;;;;;66.60;37.85;;;;;;;;;;4849593;29;20502;-84
2022/03/02 05:07:38;;;;;;;61.78;36.80;;;;;;;;;;4852143;29;21699;-82
2022/03/02 05:10:05;;;;;;;68.75;39.03;;;;;;;;;;4854956;29;20105;-83
2022/03/02 05:12:31;;;;;;;62.75;37.50;;;;;;;;;;4852749;29;20093;-83
2022/03/02 05:14:57;;;;;;;60.78;36.22;;;;;;;;;;4843746;29;20048;-86
2022/03/02 05:17:23;;;;;;;63.85;37.83;;;;;;;;;;4853976;29;20049;-83
2022/03/02 05:19:50;;;;;;;67.05;39.38;;;;;;;;;;4854039;29;20372;-83
2022/03/02 05:22:16;;;;;;;64.15;38.55;;;;;;;;;;4854052;29;20045;-83
2022/03/02 05:24:43;;;;;;;62.03;37.50;;;;;;;;;;4852947;29;20462;-83
2022/03/02 05:27:09;;;;;;;66.78;39.10;;;;;;;;;;4854667;29;20474;-83
2022/03/02 05:29:35;;;;;;;62.35;37.10;;;;;;;;;;4853678;29;20102;-83
2022/03/02 05:32:01;;;;;;;69.03;38.72;;;;;;;;;;4853365;29;20121;-83
2022/03/02 05:34:27;;;;;;;61.35;38.20;;;;;;;;;;4852853;29;20079;-83
2022/03/02 05:36:54;;;;;;;63.25;37.67;;;;;;;;;;4822411;29;20432;-83
2022/03/02 05:39:20;;;;;;;70.72;39.40;;;;;;;;;;4836173;29;20041;-84
2022/03/02 05:41:46;;;;;;;67.20;37.90;;;;;;;;;;4852492;29;20080;-84
2022/03/02 05:44:12;;;;;;;65.97;39.78;;;;;;;;;;4853903;29;20049;-83
2022/03/02 05:46:38;;;;;;;70.03;40.63;;;;;;;;;;4859129;29;20041;-83
2022/03/02 05:49:05;;;;;;;68.43;39.28;;;;;;;;;;4865677;29;20061;-83
2022/03/02 05:51:31;;;;;;;72.22;39.72;;;;;;;;;;4857269;29;20045;-83
2022/03/02 05:54:00;;;;;;;64.28;39.47;;;;;;;;;;4852811;29;20502;-83
2022/03/02 05:56:26;;;;;;;69.03;38.97;;;;;;;;;;4834887;29;20089;-87
2022/03/02 05:59:05;;;;;;;69.55;39.10;;;;;;;;;;4817869;29;20049;-87
2022/03/02 06:01:40;;;;;;;69.85;41.85;;;;;;;;;;4809007;29;20053;-87
2022/03/02 06:04:19;;;;;;;66.63;39.63;;;;;;;;;;4830288;29;20046;-88
2022/03/02 06:06:45;;;;;;;66.40;40.63;;;;;;;;;;4824640;29;20049;-87
2022/03/02 06:09:11;;;;;;;67.95;39.53;;;;;;;;;;4847316;29;20510;-87
2022/03/02 06:11:50;;;;;;;66.80;39.13;;;;;;;;;;4835533;29;20057;-88
2022/03/02 06:14:16;;;;;;;68.03;40.13;;;;;;;;;;4849333;29;20048;-87
2022/03/02 06:16:43;;;;;;;66.93;39.15;;;;;;;;;;4821056;29;20056;-88
2022/03/02 06:19:21;;;;;;;69.95;39.05;;;;;;;;;;4817810;29;20054;-87
2022/03/02 06:21:58;;;;;;;70.53;39.42;;;;;;;;;;4824052;29;20056;-89
2022/03/02 06:24:24;;;;;;;69.22;40.63;;;;;;;;;;4834190;29;20473;-87
2022/03/02 06:26:50;;;;;;;70.25;41.55;;;;;;;;;;4836232;29;20760;-86
2022/03/02 06:29:16;;;;;;;66.13;40.03;;;;;;;;;;4858651;29;20592;-87
2022/03/02 06:31:42;;;;;;;69.53;41.35;;;;;;;;;;4834475;29;20129;-87
2022/03/02 06:34:08;;;;;;;72.63;40.70;;;;;;;;;;4835841;29;20058;-87
2022/03/02 06:36:34;;;;;;;72.18;40.42;;;;;;;;;;4830287;29;20106;-87
2022/03/02 06:39:00;;;;;;;67.13;40.60;;;;;;;;;;4820360;29;20079;-88
2022/03/02 06:41:30;;;;;;;71.25;42.13;;;;;;;;;;4823666;29;20034;-87
2022/03/02 06:44:02;;;;;;;72.90;42.72;;;;;;;;;;4839197;29;20053;-87
2022/03/02 06:46:48;;;;;;;74.63;43.58;;;;;;;;;;4823254;29;20054;-87
2022/03/02 06:49:30;;;;;;;76.07;42.38;;;;;;;;;;4827477;29;20501;-87
2022/03/02 06:52:00;;;;;;;72.45;41.78;;;;;;;;;;4830783;29;20494;-87
2022/03/02 06:54:30;;;;;;;72.57;44.53;;;;;;;;;;4825764;29;20052;-87
2022/03/02 06:57:00;;;;;;;72.25;44.35;;;;;;;;;;4830483;29;20407;-87
2022/03/02 06:59:38;;;;;;;75.43;44.15;;;;;;;;;;4843848;29;20060;-86
2022/03/02 07:02:15;;;;;;;75.72;42.53;;;;;;;;;;4822070;29;20091;-86
2022/03/02 07:04:42;;;;;;;77.97;43.47;;;;;;;;;;4820755;29;20053;-87
2022/03/02 07:07:18;;;;;;;71.75;41.17;;;;;;;;;;4821038;29;20133;-87
2022/03/02 07:09:45;;;;;;;79.70;44.67;;;;;;;;;;4808563;29;20046;-87
2022/03/02 07:12:11;;;;;;;75.28;41.70;;;;;;;;;;4827398;29;20060;-86
2022/03/02 07:14:46;;;;;;;74.35;45.50;;;;;;;;;;4818830;29;20549;-87
2022/03/02 07:17:12;;;;;;;73.03;42.38;;;;;;;;;;4824100;29;20130;-88
2022/03/02 07:19:38;;;;;;;78.40;42.25;;;;;;;;;;4838623;29;20081;-87
2022/03/02 07:22:05;;;;;;;77.38;43.03;;;;;;;;;;4838708;29;20057;-87
2022/03/02 07:24:36;;;;;;;77.60;42.53;;;;;;;;;;4841702;29;20071;-87
2022/03/02 07:27:02;;;;;;;72.32;41.92;;;;;;;;;;4848740;29;20049;-86
2022/03/02 07:29:28;;;;;;;76.55;42.88;;;;;;;;;;4819981;29;20144;-86
2022/03/02 07:31:57;;;;;;;77.40;41.83;;;;;;;;;;4842957;29;20034;-87
2022/03/02 07:34:25;;;;;;;74.03;42.42;;;;;;;;;;4816425;29;20057;-88
2022/03/02 07:36:51;;;;;;;72.75;42.60;;;;;;;;;;4831516;29;20057;-87
2022/03/02 07:39:17;;;;;;;69.63;39.75;;;;;;;;;;4824953;29;20044;-88
2022/03/02 07:41:43;;;;;;;68.10;39.63;;;;;;;;;;4824971;29;20190;-86
2022/03/02 07:44:10;;;;;;;69.07;40.40;;;;;;;;;;4831967;29;20506;-87
2022/03/02 07:46:36;;;;;;;69.47;40.75;;;;;;;;;;4857841;29;20740;-88
2022/03/02 07:49:03;;;;;;;68.63;39.78;;;;;;;;;;4830232;29;20050;-87
2022/03/02 07:51:30;;;;;;;70.00;42.58;;;;;;;;;;4839205;29;20144;-87
2022/03/02 07:54:06;;;;;;;67.30;38.42;;;;;;;;;;4822888;29;20046;-87
2022/03/02 07:56:33;;;;;;;61.15;38.50;;;;;;;;;;4821942;29;20541;-87
2022/03/02 07:59:01;;;;;;;63.78;39.67;;;;;;;;;;4825830;29;20058;-87
2022/03/02 08:01:28;;;;;;;70.85;39.83;;;;;;;;;;4829347;29;20874;-87
2022/03/02 08:03:55;;;;;;;66.22;38.95;;;;;;;;;;4846332;29;20054;-87
2022/03/02 08:06:22;;;;;;;67.13;40.10;;;;;;;;;;4836326;29;20034;-87
2022/03/02 08:08:51;;;;;;;66.07;38.22;;;;;;;;;;4853156;29;20053;-87
2022/03/02 08:11:17;;;;;;;68.65;41.90;;;;;;;;;;4821593;29;20073;-86
2022/03/02 08:13:43;;;;;;;63.03;39.75;;;;;;;;;;4856258;29;20447;-87
2022/03/02 08:16:11;;;;;;;68.22;39.88;;;;;;;;;;4860365;29;20050;-86
2022/03/02 08:18:37;;;;;;;61.72;40.50;;;;;;;;;;4851243;29;20046;-88
2022/03/02 08:21:04;;;;;;;68.22;41.05;;;;;;;;;;4871937;23;20109;-87
2022/03/02 08:23:36;;;;;;;66.63;39.55;;;;;;;;;;4858587;29;20049;-87
2022/03/02 08:26:03;;;;;;;67.63;40.45;;;;;;;;;;4847669;29;20120;-87
2022/03/02 08:28:32;;;;;;;72.15;41.55;;;;;;;;;;4831936;29;20069;-86
2022/03/02 08:30:58;;;;;;;67.63;40.15;;;;;;;;;;4859417;29;20056;-86
2022/03/02 08:33:29;;;;;;;68.55;41.00;;;;;;;;;;4859806;29;20342;-87
2022/03/02 08:35:56;;;;;;;74.03;41.58;;;;;;;;;;4867105;29;20053;-88
2022/03/02 08:38:23;;;;;;;64.97;38.33;;;;;;;;;;4851530;29;20049;-87
2022/03/02 08:40:49;;;;;;;64.82;39.38;;;;;;;;;;4843378;29;20070;-86
2022/03/02 08:43:16;;;;;;;70.38;42.05;;;;;;;;;;4829420;29;20054;-86
2022/03/02 08:45:49;;;;;;;68.25;39.97;;;;;;;;;;4849171;29;20125;-87
2022/03/02 08:48:16;;;;;;;70.53;40.35;;;;;;;;;;4864407;29;20037;-86
2022/03/02 08:50:42;;;;;;;63.88;40.53;;;;;;;;;;4844450;29;20086;-88
2022/03/02 08:53:09;;;;;;;63.08;37.45;;;;;;;;;;4865598;29;20045;-86
2022/03/02 08:55:35;;;;;;;65.65;38.80;;;;;;;;;;4853888;29;20045;-87
2022/03/02 08:58:02;;;;;;;66.57;39.50;;;;;;;;;;4844878;29;20554;-87
2022/03/02 09:00:28;;;;;;;63.42;39.22;;;;;;;;;;4873137;29;20041;-87
2022/03/02 09:02:54;;;;;;;69.32;39.50;;;;;;;;;;4833756;29;20081;-87
2022/03/02 09:05:20;;;;;;;68.00;39.28;;;;;;;;;;4849884;29;21917;-87
2022/03/02 09:07:46;;;;;;;64.88;39.92;;;;;;;;;;4833261;29;20041;-87
2022/03/02 09:10:13;;;;;;;64.07;39.25;;;;;;;;;;4851161;29;20053;-87
2022/03/02 09:12:56;;;;;;;66.88;40.30;;;;;;;;;;4851256;29;20051;-89
2022/03/02 09:15:38;;;;;;;68.13;38.47;;;;;;;;;;4851512;29;20475;-89
2022/03/02 09:18:20;;;;;;;56.45;34.35;;;;;;;;;;4868097;29;20511;-89
2022/03/02 09:21:00;;;;;;;59.25;36.03;;;;;;;;;;4851571;29;20144;-89
2022/03/02 09:23:45;;;;;;;59.40;35.47;;;;;;;;;;4849239;29;20498;-89
2022/03/02 09:26:13;;;;;;;52.58;33.97;;;;;;;;;;4858073;29;20578;-88
2022/03/02 09:28:40;;;;;;;56.80;34.47;;;;;;;;;;4853588;23;20064;-87
2022/03/02 09:31:10;;;;;;;56.70;34.17;;;;;;;;;;4825030;29;20054;-89
2022/03/02 09:33:37;;;;;;;58.53;34.45;;;;;;;;;;4829209;29;20045;-88
2022/03/02 09:36:12;;;;;;;55.58;34.08;;;;;;;;;;4808797;29;20066;-88
2022/03/02 09:38:41;;;;;;;56.67;34.50;;;;;;;;;;4826577;29;20042;-88
2022/03/02 09:41:26;;;;;;;55.28;33.85;;;;;;;;;;4816015;29;20453;-90
2022/03/02 09:43:55;;;;;;;54.55;33.80;;;;;;;;;;4823067;29;20443;-88
2022/03/02 09:46:24;;;;;;;54.47;35.30;;;;;;;;;;4830929;29;20065;-88
2022/03/02 09:52:15;;;;;;;54.45;32.60;;;;;;;;;;4830833;29;20042;-87
2022/03/02 09:54:57;;;;;;;51.40;31.73;;;;;;;;;;4828222;29;20422;-87
2022/03/02 09:57:25;;;;;;;53.25;33.33;;;;;;;;;;4795667;29;20412;-89
2022/03/02 09:59:55;;;;;;;52.22;31.98;;;;;;;;;;4848551;29;20059;-88
2022/03/02 10:02:42;;;;;;;54.38;33.65;;;;;;;;;;4832400;29;20058;-88
2022/03/02 10:05:20;;;;;;;51.13;31.42;;;;;;;;;;4837270;29;20129;-89
2022/03/02 10:08:04;;;;;;;54.47;32.03;;;;;;;;;;4817734;29;20512;-88
2022/03/02 10:10:33;;;;;;;48.20;32.38;;;;;;;;;;4820992;29;20054;-86
2022/03/02 10:13:01;;;;;;;51.67;32.08;;;;;;;;;;4827461;29;20133;-86
2022/03/02 10:15:27;;;;;;;51.13;31.70;;;;;;;;;;4836536;29;20054;-87
2022/03/02 10:17:53;;;;;;;48.65;32.13;;;;;;;;;;4833113;29;20077;-86
2022/03/02 10:20:21;;;;;;;55.63;33.17;;;;;;;;;;4834193;29;20650;-86
2022/03/02 10:22:47;;;;;;;53.67;32.58;;;;;;;;;;4830987;29;20046;-86
2022/03/02 10:25:14;;;;;;;50.88;31.23;;;;;;;;;;4823984;29;20081;-88
2022/03/02 10:27:50;;;;;;;52.17;32.47;;;;;;;;;;4804943;29;20068;-86
2022/03/02 10:30:16;;;;;;;54.25;33.25;;;;;;;;;;4835958;29;20144;-86
2022/03/02 10:32:43;;;;;;;56.95;33.08;;;;;;;;;;4806790;29;20051;-86
2022/03/02 10:35:13;;;;;;;54.35;31.88;;;;;;;;;;4816878;29;20061;-87
2022/03/02 10:37:46;;;;;;;55.38;33.05;;;;;;;;;;4814447;29;20050;-87
2022/03/02 10:40:15;;;;;;;50.17;32.78;;;;;;;;;;4821484;29;20041;-88
2022/03/02 10:42:44;;;;;;;50.20;34.05;;;;;;;;;;4834401;29;20498;-87
2022/03/02 10:45:10;;;;;;;49.15;31.40;;;;;;;;;;4854452;29;20594;-86
2022/03/02 10:47:55;;;;;;;48.97;32.22;;;;;;;;;;4837245;29;20161;-86
2022/03/02 10:50:25;;;;;;;49.88;31.65;;;;;;;;;;4822980;29;20538;-86
2022/03/02 10:52:54;;;;;;;49.78;31.48;;;;;;;;;;4808216;29;20050;-88
2022/03/02 10:55:22;;;;;;;48.88;30.98;;;;;;;;;;4834287;29;20054;-86
2022/03/02 10:57:50;;;;;;;44.13;31.25;;;;;;;;;;4837222;29;20058;-86
2022/03/02 11:00:18;;;;;;;46.90;28.98;;;;;;;;;;4827145;29;20224;-87
2022/03/02 11:02:45;;;;;;;42.50;29.63;;;;;;;;;;4821573;29;20064;-86
2022/03/02 11:05:18;;;;;;;44.50;30.15;;;;;;;;;;4832948;29;20050;-86
2022/03/02 11:07:54;;;;;;;46.80;30.88;;;;;;;;;;4827707;29;20105;-86
2022/03/02 11:10:37;;;;;;;46.03;30.27;;;;;;;;;;4847280;29;20128;-86
2022/03/02 11:13:10;;;;;;;49.38;31.33;;;;;;;;;;4789488;29;20120;-86
2022/03/02 11:15:52;;;;;;;44.85;30.33;;;;;;;;;;4794809;29;20058;-86
2022/03/02 11:18:31;;;;;;;47.63;29.77;;;;;;;;;;4777957;29;20046;-85
2022/03/02 11:21:07;;;;;;;43.90;30.05;;;;;;;;;;4791424;29;20055;-86
2022/03/02 11:23:46;;;;;;;44.13;27.70;;;;;;;;;;4791550;29;20055;-86
2022/03/02 11:26:16;;;;;;;39.92;28.52;;;;;;;;;;4795223;29;20223;-87
2022/03/02 11:29:06;;;;;;;42.55;26.30;;;;;;;;;;4790095;29;20209;-86
2022/03/02 11:31:39;;;;;;;39.47;28.30;;;;;;;;;;4785693;29;20050;-86
2022/03/02 11:34:10;;;;;;;41.88;27.70;;;;;;;;;;4798638;29;20098;-86
2022/03/02 11:36:37;;;;;;;39.28;27.02;;;;;;;;;;4782239;29;20051;-86
2022/03/02 11:39:05;;;;;;;40.40;27.30;;;;;;;;;;4801403;29;20170;-86
2022/03/02 11:41:37;;;;;;;38.58;26.58;;;;;;;;;;4785223;29;20126;-86
2022/03/02 11:44:04;;;;;;;38.58;26.63;;;;;;;;;;4827730;29;20053;-87
2022/03/02 11:46:30;;;;;;;38.47;26.88;;;;;;;;;;4842928;29;20153;-86
2022/03/02 11:49:04;;;;;;;40.20;27.10;;;;;;;;;;4813362;29;20038;-86
2022/03/02 11:51:35;;;;;;;35.00;26.23;;;;;;;;;;4849786;29;20041;-86
2022/03/02 11:54:02;;;;;;;43.10;27.55;;;;;;;;;;4823254;29;20068;-86
2022/03/02 11:56:34;;;;;;;38.53;27.73;;;;;;;;;;4824666;29;20061;-86
2022/03/02 11:59:08;;;;;;;38.90;27.70;;;;;;;;;;4811694;29;20117;-86
2022/03/02 12:01:53;;;;;;;33.53;25.85;;;;;;;;;;4820201;29;20053;-86
2022/03/02 12:04:19;;;;;;;38.25;26.17;;;;;;;;;;4842162;29;20053;-86
2022/03/02 12:06:48;;;;;;;36.85;25.60;;;;;;;;;;4811417;29;20391;-86
2022/03/02 12:09:31;;;;;;;32.20;24.10;;;;;;;;;;4823874;29;20037;-86
2022/03/02 12:12:06;;;;;;;36.33;25.35;;;;;;;;;;4834559;29;20511;-86
2022/03/02 12:14:41;;;;;;;34.95;25.52;;;;;;;;;;4831319;29;20092;-87
2022/03/02 12:17:17;;;;;;;36.45;25.95;;;;;;;;;;4836883;29;20054;-89
2022/03/02 12:19:48;;;;;;;37.17;25.25;;;;;;;;;;4824434;29;20448;-86
2022/03/02 12:22:17;;;;;;;37.67;25.92;;;;;;;;;;4840055;29;20073;-86
2022/03/02 12:24:45;;;;;;;36.47;25.65;;;;;;;;;;4812390;29;20045;-86
2022/03/02 12:27:11;;;;;;;32.10;24.75;;;;;;;;;;4836147;29;20050;-86
2022/03/02 12:30:04;;;;;;;33.83;25.73;;;;;;;;;;4840026;29;20142;-87
2022/03/02 12:32:33;;;;;;;33.53;25.88;;;;;;;;;;4804632;29;20049;-88
2022/03/02 12:35:03;;;;;;;32.00;24.30;;;;;;;;;;4838502;29;20816;-88
2022/03/02 12:37:30;;;;;;;35.00;25.30;;;;;;;;;;4844798;29;20110;-86
2022/03/02 12:39:56;;;;;;;33.83;24.60;;;;;;;;;;4840326;29;20050;-87
2022/03/02 12:42:31;;;;;;;34.85;24.33;;;;;;;;;;4841190;29;20053;-86
2022/03/02 12:44:58;;;;;;;33.17;25.05;;;;;;;;;;4844896;29;20439;-86
2022/03/02 12:47:28;;;;;;;33.85;26.10;;;;;;;;;;4843065;29;20098;-87
2022/03/02 12:49:57;;;;;;;32.45;23.98;;;;;;;;;;4827183;29;20054;-87
2022/03/02 12:52:41;;;;;;;31.88;24.90;;;;;;;;;;4794620;29;20478;-86
2022/03/02 12:55:08;;;;;;;35.17;25.75;;;;;;;;;;4836044;29;20053;-86
2022/03/02 12:57:35;;;;;;;32.20;24.13;;;;;;;;;;4832128;29;20097;-86
2022/03/02 13:00:04;;;;;;;35.63;26.00;;;;;;;;;;4846728;29;20053;-87
2022/03/02 13:02:32;;;;;;;30.95;24.00;;;;;;;;;;4826933;29;20116;-87
2022/03/02 13:05:05;;;;;;;30.70;24.92;;;;;;;;;;4836420;29;20129;-86
2022/03/02 13:07:37;;;;;;;32.53;25.33;;;;;;;;;;4835216;29;20098;-88
2022/03/02 13:10:05;;;;;;;31.58;25.48;;;;;;;;;;4835293;29;20062;-88
2022/03/02 13:12:39;;;;;;;35.40;26.15;;;;;;;;;;4806293;29;20068;-88
2022/03/02 13:15:07;;;;;;;;;;;;;;;;;;4820174;29;20078;-88
2022/03/02 13:17:33;;;;;;;32.38;25.20;;;;;;;;;;4821057;29;19924;-88
2022/03/02 13:20:00;;;;;;;34.92;26.30;;;;;;;;;;4821772;29;20053;-88
2022/03/02 13:22:46;;;;;;;34.30;27.10;;;;;;;;;;4823367;29;20105;-88
2022/03/02 13:25:13;;;;;;;34.83;26.20;;;;;;;;;;4807288;29;20621;-88
2022/03/02 13:27:57;;;;;;;36.22;26.33;;;;;;;;;;4832016;29;20050;-90
2022/03/02 13:30:24;;;;;;;42.40;26.45;;;;;;;;;;4835941;29;20061;-88
2022/03/02 13:32:59;;;;;;;34.58;26.63;;;;;;;;;;4842714;29;20053;-90
2022/03/02 13:35:44;;;;;;;36.80;26.92;;;;;;;;;;4822236;29;20085;-90
2022/03/02 13:38:20;;;;;;;39.28;26.75;;;;;;;;;;4830901;29;20379;-89
2022/03/02 13:40:48;;;;;;;38.50;27.27;;;;;;;;;;4824085;29;20050;-88
2022/03/02 13:43:14;;;;;;;37.03;26.83;;;;;;;;;;4821890;29;20042;-89
2022/03/02 13:45:44;;;;;;;40.05;27.35;;;;;;;;;;4802500;29;20046;-88
2022/03/02 13:48:15;;;;;;;37.72;26.45;;;;;;;;;;4822350;29;20053;-87
2022/03/02 13:51:00;;;;;;;36.67;25.63;;;;;;;;;;4819253;29;20075;-87
2022/03/02 13:53:32;;;;;;;34.88;25.73;;;;;;;;;;4824609;29;20049;-88
2022/03/02 13:56:06;;;;;;;35.88;25.38;;;;;;;;;;4814730;29;20038;-88
2022/03/02 13:58:33;;;;;;;37.50;25.63;;;;;;;;;;4837036;29;20141;-88
2022/03/02 14:01:19;;;;;;;37.85;26.88;;;;;;;;;;4839121;29;20072;-88
2022/03/02 14:03:51;;;;;;;39.45;25.95;;;;;;;;;;4831668;29;20504;-89
2022/03/02 14:06:17;;;;;;;35.83;26.52;;;;;;;;;;4853141;29;20049;-88
2022/03/02 14:08:48;;;;;;;36.75;26.73;;;;;;;;;;4809205;29;20038;-88
2022/03/02 14:11:39;;;;;;;36.78;26.52;;;;;;;;;;4842761;29;20050;-87
2022/03/02 14:14:12;;;;;;;39.60;26.83;;;;;;;;;;4846083;29;20099;-88
2022/03/02 14:16:39;;;;;;;34.90;26.00;;;;;;;;;;4806098;29;20546;-88
2022/03/02 14:19:05;;;;;;;36.63;26.30;;;;;;;;;;4828386;29;20488;-88
2022/03/02 14:21:51;;;;;;;39.72;27.25;;;;;;;;;;4832357;29;20482;-88
2022/03/02 14:24:17;;;;;;;37.20;26.65;;;;;;;;;;4819935;29;20037;-88
2022/03/02 14:26:55;;;;;;;38.53;26.35;;;;;;;;;;4848413;29;20055;-88
2022/03/02 14:29:21;;;;;;;44.78;27.45;;;;;;;;;;4802224;29;20196;-89
2022/03/02 14:31:55;;;;;;;37.35;25.77;;;;;;;;;;4829320;29;20104;-87
2022/03/02 14:34:22;;;;;;;38.20;25.48;;;;;;;;;;4821878;29;20092;-88